Time;durP1;ratioP1;P1;durP2;ratioP2;P2;SDS_P1;SDS_P2;PMS_P1;PMS_P2;Temp;Humidity;BMP_temperature;BMP_pressure;BME280_temperature;BME280_humidity;BME280_pressure;Samples;Min_cycle;Max_cycle;Signal;HPM_P1;HPM_P2
2021/05/21 00:01:17;;;;;;;;;;;13.80;99.90;;;13.41;100.00;100980.69;5033077;28;19932;-63
2021/05/21 00:03:44;;;;;;;;;;;13.80;99.90;;;13.53;100.00;100972.03;5032681;28;20010;-63
2021/05/21 00:06:12;;;;;;;;;;;13.80;99.90;;;13.60;100.00;100980.56;5032675;28;20344;-62
2021/05/21 00:08:40;;;;;;;;;;;13.90;99.90;;;13.63;100.00;100975.31;5032995;28;19971;-63
2021/05/21 00:11:07;;;;;;;;;;;13.90;99.90;;;13.67;100.00;100973.63;5033037;28;19927;-62
2021/05/21 00:13:34;;;;;;;;;;;13.90;99.90;;;13.65;100.00;100975.00;5032641;28;20242;-63
2021/05/21 00:16:01;;;;;;;;;;;13.90;99.90;;;13.64;100.00;100974.22;5032400;28;19931;-63
2021/05/21 00:18:29;;;;;;;;;;;13.90;99.90;;;13.58;100.00;100963.78;5032892;28;19925;-63
2021/05/21 00:20:56;;;;;;;;;;;;;;;13.53;100.00;100955.72;5032732;28;19971;-63
2021/05/21 00:23:23;;;;;;;;;;;13.90;99.90;;;13.39;100.00;100947.63;5032782;28;19934;-63
2021/05/21 00:25:51;;;;;;;;;;;13.80;99.90;;;13.33;100.00;100951.56;5032453;28;20363;-62
2021/05/21 00:28:21;;;;;;;;;;;13.80;99.90;;;13.32;100.00;100954.56;5032212;28;19925;-63
2021/05/21 00:30:48;;;;;;;;;;;13.80;99.90;;;13.29;100.00;100960.59;5032786;28;20271;-62
2021/05/21 00:33:15;;;;;;;;;;;13.70;99.90;;;13.26;100.00;100950.34;5032565;28;19921;-63
2021/05/21 00:35:43;;;;;;;;;;;13.70;99.90;;;13.23;100.00;100945.53;5032321;28;19925;-63
2021/05/21 00:38:10;;;;;;;;;;;13.70;99.90;;;13.22;100.00;100936.59;5031973;28;20023;-63
2021/05/21 00:40:37;;;;;;;;;;;13.60;99.90;;;13.16;100.00;100945.97;5032540;28;19925;-62
2021/05/21 00:43:05;;;;;;;;;;;13.60;99.90;;;13.17;100.00;100944.81;5032398;28;19929;-62
2021/05/21 00:45:33;;;;;;;;;;;13.60;99.90;;;13.18;100.00;100946.44;5032287;28;19929;-64
2021/05/21 00:48:00;;;;;;;;;;;13.60;99.90;;;13.14;100.00;100948.97;5031953;28;19932;-64
2021/05/21 00:50:28;;;;;;;;;;;13.60;99.90;;;13.25;100.00;100948.75;5032487;28;19948;-64
2021/05/21 00:52:55;;;;;;;;;;;13.60;99.90;;;13.31;100.00;100950.25;5032247;28;19925;-63
2021/05/21 00:55:22;;;;;;;;;;;13.70;99.90;;;13.34;100.00;100950.44;5031839;28;19933;-63
2021/05/21 00:57:50;;;;;;;;;;;13.70;99.90;;;13.22;100.00;100958.31;5031755;28;19925;-63
2021/05/21 01:00:19;;;;;;;;;;;13.60;99.90;;;13.16;100.00;100951.38;5032347;28;19925;-63
2021/05/21 01:02:46;;;;;;;;;;;13.60;99.90;;;13.20;100.00;100951.56;5032212;28;19936;-62
2021/05/21 01:05:14;;;;;;;;;;;13.60;99.90;;;13.29;100.00;100947.81;5032080;28;19925;-63
2021/05/21 01:07:42;;;;;;;;;;;13.60;99.90;;;13.28;100.00;100942.72;5031464;28;19932;-63
2021/05/21 01:10:10;;;;;;;;;;;13.60;99.90;;;13.31;99.01;100942.09;5032289;28;19925;-63
2021/05/21 01:12:37;;;;;;;;;;;13.60;99.90;;;13.25;97.57;100933.28;5032058;28;19925;-63
2021/05/21 01:15:06;;;;;;;;;;;13.60;99.90;;;13.27;96.70;100941.09;5031952;28;19932;-63
2021/05/21 01:17:34;;;;;;;;;;;13.60;99.90;;;13.27;95.95;100930.22;5031566;28;19932;-63
2021/05/21 01:20:02;;;;;;;;;;;13.60;99.90;;;13.22;95.25;100925.72;5031968;28;19955;-63
2021/05/21 01:22:30;;;;;;;;;;;13.60;99.90;;;13.26;94.51;100923.19;5032024;28;19925;-62
2021/05/21 01:24:57;;;;;;;;;;;13.60;99.90;;;13.35;93.54;100921.34;5031861;28;19959;-62
2021/05/21 01:27:26;;;;;;;;;;;13.60;99.90;;;13.37;92.55;100913.72;5031300;28;20371;-63
2021/05/21 01:29:53;;;;;;;;;;;13.70;99.90;;;13.31;92.65;100918.47;5032103;28;19925;-63
2021/05/21 01:32:20;;;;;;;;;;;13.60;99.90;;;13.41;92.43;100914.69;5031887;28;19925;-63
2021/05/21 01:34:47;;;;;;;;;;;13.70;99.90;;;13.50;91.52;100924.53;5031897;28;20294;-63
2021/05/21 01:37:16;;;;;;;;;;;13.80;99.90;;;13.56;90.12;100909.72;5031221;28;19959;-63
2021/05/21 01:39:44;;;;;;;;;;;13.80;99.90;;;13.56;89.00;100912.44;5032102;28;19925;-62
2021/05/21 01:42:12;;;;;;;;;;;13.80;99.90;;;13.52;88.67;100919.63;5031890;28;20383;-63
2021/05/21 01:44:40;;;;;;;;;;;13.80;99.90;;;13.35;88.15;100921.34;5031717;28;19925;-63
2021/05/21 01:47:08;;;;;;;;;;;13.70;99.90;;;13.17;88.48;100922.28;5030903;28;19951;-63
2021/05/21 01:49:35;;;;;;;;;;;13.60;99.90;;;13.01;88.35;100917.16;5031311;28;19933;-62
2021/05/21 01:52:02;;;;;;;;;;;13.50;99.90;;;12.85;88.43;100917.78;5031662;28;19952;-62
2021/05/21 01:54:30;;;;;;;;;;;13.30;99.90;;;12.77;88.02;100927.41;5031746;28;19932;-64
2021/05/21 01:57:01;;;;;;;;;;;13.20;99.90;;;12.95;87.36;100933.88;5030968;28;19925;-63
2021/05/21 01:59:28;;;;;;;;;;;13.30;99.90;;;13.09;85.54;100918.41;5031845;28;19932;-64
2021/05/21 02:01:55;;;;;;;;;;;13.40;99.90;;;13.16;85.39;100910.66;5032551;28;19925;-65
2021/05/21 02:04:30;;;;;;;;;;;13.40;99.90;;;12.94;84.78;100913.25;5035376;28;20456;-64
2021/05/21 02:06:58;;;;;;;;;;;13.30;99.90;;;12.70;86.93;100907.25;5034555;28;19948;-64
2021/05/21 02:09:25;;;;;;;;;;;13.10;99.90;;;12.63;87.42;100913.06;5035562;28;20358;-64
2021/05/21 02:11:53;;;;;;;;;;;13.00;99.90;;;12.59;88.75;100904.72;5035363;28;19983;-64
2021/05/21 02:14:21;;;;;;;;;;;13.00;99.90;;;12.67;87.90;100905.13;5034930;28;19944;-62
2021/05/21 02:16:49;;;;;;;;;;;13.00;99.90;;;12.64;87.09;100906.53;5034548;28;19929;-62
2021/05/21 02:19:16;;;;;;;;;;;13.00;99.90;;;12.55;86.07;100900.97;5035148;28;19929;-63
2021/05/21 02:21:46;;;;;;;;;;;12.90;99.90;;;12.60;86.45;100902.81;5035345;28;19931;-63
2021/05/21 02:24:13;;;;;;;;;;;13.00;99.90;;;12.68;86.44;100909.44;5034921;28;19936;-63
2021/05/21 02:26:41;;;;;;;;;;;13.00;99.90;;;12.73;85.65;100898.50;5034294;28;19987;-62
2021/05/21 02:29:09;;;;;;;;;;;13.10;99.90;;;12.73;84.60;100898.50;5035058;28;19932;-63
2021/05/21 02:31:38;;;;;;;;;;;13.10;99.90;;;12.55;85.37;100886.66;5034925;28;19925;-63
2021/05/21 02:34:05;;;;;;;;;;;13.00;99.90;;;12.49;85.64;100887.84;5034682;28;20367;-63
2021/05/21 02:36:32;;;;;;;;;;;12.80;99.90;;;12.45;85.96;100895.78;5034034;28;19925;-63
2021/05/21 02:38:59;;;;;;;;;;;12.70;99.90;;;12.35;86.61;100897.84;5034941;28;20437;-63
2021/05/21 02:41:26;;;;;;;;;;;12.70;99.90;;;12.33;87.35;100897.38;5035776;28;19932;-63
2021/05/21 02:43:54;;;;;;;;;;;12.70;99.90;;;12.33;87.27;100900.06;5054611;28;19932;-63
2021/05/21 02:46:21;;;;;;;;;;;12.70;99.90;;;12.33;87.47;100895.47;5053736;28;19925;-63
2021/05/21 02:48:49;;;;;;;;;;;12.70;99.90;;;12.33;86.13;100894.66;5054713;28;19932;-63
2021/05/21 02:51:16;;;;;;;;;;;12.70;99.90;;;12.25;86.34;100887.22;5054716;28;20293;-63
2021/05/21 02:53:43;;;;;;;;;;;12.60;99.90;;;12.14;87.29;100874.94;5054254;28;19952;-62
2021/05/21 02:56:10;;;;;;;;;;;12.50;99.90;;;12.15;87.62;100876.53;5053689;28;19925;-63
2021/05/21 02:58:38;;;;;;;;;;;12.50;99.90;;;12.15;88.88;100865.69;5054256;28;19932;-62
2021/05/21 03:01:05;;;;;;;;;;;12.50;99.90;;;12.03;89.33;100867.00;5054424;28;19925;-63
2021/05/21 03:03:33;;;;;;;;;;;12.50;99.90;;;12.10;90.04;100863.09;5054132;28;20375;-63
2021/05/21 03:06:01;;;;;;;;;;;12.50;99.90;;;12.28;89.88;100871.13;5053639;28;19928;-63
2021/05/21 03:08:29;;;;;;;;;;;12.60;99.90;;;12.60;88.23;100878.41;5054054;28;19948;-63
2021/05/21 03:10:56;;;;;;;;;;;12.90;99.90;;;12.84;86.67;100868.13;5054314;28;19929;-63
2021/05/21 03:13:24;;;;;;;;;;;13.10;99.90;;;12.79;83.48;100884.53;5053950;28;20382;-63
2021/05/21 03:15:51;;;;;;;;;;;13.00;99.90;;;12.66;83.09;100890.75;5053747;28;19924;-62
2021/05/21 03:18:22;;;;;;;;;;;12.90;99.90;;;12.51;85.19;100897.28;5053774;28;19935;-63
2021/05/21 03:20:50;;;;;;;;;;;12.80;99.90;;;12.41;85.35;100897.47;5053907;28;19925;-63
2021/05/21 03:23:19;;;;;;;;;;;12.70;99.90;;;12.23;87.83;100908.38;5053732;28;19920;-63
2021/05/21 03:25:46;;;;;;;;;;;12.60;99.90;;;12.05;87.95;100902.72;5053711;28;19932;-63
2021/05/21 03:28:14;;;;;;;;;;;12.40;99.90;;;11.94;88.67;100904.00;5053503;28;19928;-63
2021/05/21 03:30:42;;;;;;;;;;;12.30;99.90;;;11.88;89.25;100899.78;5053886;28;19925;-63
2021/05/21 03:33:09;;;;;;;;;;;12.20;99.90;;;11.70;88.91;100897.91;5053552;28;19925;-63
2021/05/21 03:35:37;;;;;;;;;;;12.10;99.90;;;11.64;88.12;100888.22;5039226;28;19960;-63
2021/05/21 03:38:04;;;;;;;;;;;12.10;99.90;;;11.57;88.29;100886.97;5033194;28;19929;-62
2021/05/21 03:40:34;;;;;;;;;;;11.90;99.90;;;11.44;87.72;100878.50;5033838;28;19925;-63
2021/05/21 03:43:01;;;;;;;;;;;11.90;99.90;;;11.26;88.31;100881.19;5033425;28;19932;-63
2021/05/21 03:45:29;;;;;;;;;;;11.80;99.90;;;11.41;89.42;100873.66;5033463;28;19944;-63
2021/05/21 03:47:56;;;;;;;;;;;11.80;99.90;;;11.64;88.10;100871.97;5032794;28;20338;-63
2021/05/21 03:50:24;;;;;;;;;;;12.00;99.90;;;11.82;87.21;100867.63;5033645;28;20541;-63
2021/05/21 03:52:51;;;;;;;;;;;12.20;99.90;;;11.98;85.86;100869.78;5033557;28;19925;-63
2021/05/21 03:55:20;;;;;;;;;;;12.30;99.90;;;12.04;85.06;100868.59;5032984;28;19932;-63
2021/05/21 03:57:48;;;;;;;;;;;12.40;99.90;;;12.16;83.74;100878.94;5032865;28;19948;-64
2021/05/21 04:00:18;;;;;;;;;;;12.50;99.90;;;12.37;81.79;100884.81;5033375;28;19925;-63
2021/05/21 04:02:46;;;;;;;;;;;12.70;99.90;;;12.52;81.17;100884.53;5032777;28;20367;-63
2021/05/21 04:05:13;;;;;;;;;;;12.80;99.90;;;12.50;80.97;100884.00;5033010;28;20319;-63
2021/05/21 04:07:41;;;;;;;;;;;12.80;99.90;;;12.29;81.25;100882.78;5032744;28;19944;-63
2021/05/21 04:10:09;;;;;;;;;;;12.60;99.90;;;12.21;83.11;100869.94;5033270;28;19951;-63
2021/05/21 04:12:36;;;;;;;;;;;12.50;99.90;;;12.07;82.95;100888.09;5033227;28;20377;-63
2021/05/21 04:15:06;;;;;;;;;;;12.50;99.90;;;12.03;83.65;100879.75;5032565;28;20295;-63
2021/05/21 04:17:33;;;;;;;;;;;12.40;99.90;;;11.77;83.55;100879.34;5032331;28;19925;-64
2021/05/21 04:20:00;;;;;;;;;;;12.30;99.90;;;11.58;83.54;100883.16;5032996;28;19979;-63
2021/05/21 04:22:28;;;;;;;;;;;12.10;99.90;;;11.37;84.38;100890.78;5033058;28;19932;-63
2021/05/21 04:24:55;;;;;;;;;;;11.90;99.90;;;11.35;85.83;100890.28;5032270;28;20401;-63
2021/05/21 04:27:23;;;;;;;;;;;11.80;99.90;;;11.40;86.69;100898.31;5032018;28;20448;-63
2021/05/21 04:29:50;;;;;;;;;;;11.90;99.90;;;11.50;87.58;100893.56;5032504;28;19967;-63
2021/05/21 04:32:18;;;;;;;;;;;11.90;99.90;;;11.53;87.13;100897.59;5032824;28;20383;-63
2021/05/21 04:34:46;;;;;;;;;;;12.00;99.90;;;11.52;87.01;100891.34;5032450;28;19932;-63
2021/05/21 04:37:13;;;;;;;;;;;12.00;99.90;;;11.42;85.46;100869.06;5032043;28;19925;-63
2021/05/21 04:39:40;;;;;;;;;;;11.90;99.90;;;11.22;85.74;100886.38;5032757;28;20298;-63
2021/05/21 04:42:08;;;;;;;;;;;11.70;99.90;;;11.30;87.91;100884.94;5032638;28;19948;-63
2021/05/21 04:44:35;;;;;;;;;;;11.70;99.90;;;11.46;88.22;100880.88;5032290;28;20378;-63
2021/05/21 04:47:02;;;;;;;;;;;11.90;99.90;;;11.57;88.09;100881.56;5031934;28;19948;-63
2021/05/21 04:49:34;;;;;;;;;;;12.00;99.90;;;11.59;87.31;100876.63;5032585;28;19932;-63
2021/05/21 04:52:04;;;;;;;;;;;12.00;99.90;;;11.53;87.40;100871.31;5032661;28;20294;-63
2021/05/21 04:54:31;;;;;;;;;;;12.00;99.90;;;11.49;87.99;100874.88;5032126;28;19925;-63
2021/05/21 04:56:59;;;;;;;;;;;12.00;99.90;;;11.58;88.68;100873.13;5031518;28;19933;-63
2021/05/21 04:59:26;;;;;;;;;;;12.00;99.90;;;11.68;89.33;100881.09;5032437;28;19929;-63
2021/05/21 05:01:53;;;;;;;;;;;12.10;99.90;;;11.83;88.97;100893.63;5032566;28;20347;-63
2021/05/21 05:04:20;;;;;;;;;;;12.20;99.90;;;11.88;88.61;100888.94;5032051;28;19929;-63
2021/05/21 05:06:49;;;;;;;;;;;12.30;99.90;;;11.95;87.92;100883.13;5031643;28;19932;-63
2021/05/21 05:09:17;;;;;;;;;;;12.40;99.90;;;11.92;87.11;100889.13;5032272;28;19960;-63
2021/05/21 05:11:44;;;;;;;;;;;12.30;99.90;;;11.86;87.63;100888.41;5032320;28;19933;-63
2021/05/21 05:14:13;;;;;;;;;;;12.30;99.90;;;11.90;88.82;100894.06;5032133;28;19925;-63
2021/05/21 05:16:41;;;;;;;;;;;12.30;99.90;;;12.23;92.18;100906.47;5031364;28;19936;-63
2021/05/21 05:19:09;;;;;;;;;;;;;;;12.57;92.52;100889.84;5032015;28;20299;-63
2021/05/21 05:21:39;;;;;;;;;;;12.90;99.90;;;12.84;91.03;100895.28;5042167;28;19925;-64
2021/05/21 05:24:12;;;;;;;;;;;13.20;99.90;;;12.95;89.76;100888.50;5052009;28;19925;-63
2021/05/21 05:26:40;;;;;;;;;;;13.30;99.90;;;13.04;89.58;100894.84;5051235;28;20572;-62
2021/05/21 05:29:08;;;;;;;;;;;13.30;99.90;;;13.08;89.37;100886.91;5051880;28;19925;-64
2021/05/21 05:31:36;;;;;;;;;;;13.40;99.90;;;13.13;89.65;100903.91;5052020;28;19932;-63
2021/05/21 05:34:03;;;;;;;;;;;13.40;99.90;;;13.13;90.07;100901.19;5051741;28;19929;-62
2021/05/21 05:36:31;;;;;;;;;;;13.50;99.90;;;13.17;90.84;100916.88;5051426;28;20389;-63
2021/05/21 05:38:58;;;;;;;;;;;13.50;99.90;;;13.19;91.58;100928.25;5055875;28;20355;-62
2021/05/21 05:41:26;;;;;;;;;;;13.50;99.90;;;13.29;93.20;100936.16;5056036;28;19925;-65
2021/05/21 05:43:54;;;;;;;;;;;13.60;99.90;;;13.38;93.51;100935.13;5055797;28;19994;-64
2021/05/21 05:46:21;;;;;;;;;;;13.80;99.90;;;13.54;94.50;100941.03;5054879;28;20333;-64
2021/05/21 05:48:50;;;;;;;;;;;13.90;99.90;;;13.76;96.46;100942.97;5055663;28;19924;-65
2021/05/21 05:51:17;;;;;;;;;;;14.10;99.90;;;13.90;97.17;100949.16;5055679;28;19955;-64
2021/05/21 05:53:44;;;;;;;;;;;14.30;99.90;;;14.02;98.20;100958.38;5055605;28;19925;-65
2021/05/21 05:56:12;;;;;;;;;;;14.40;99.90;;;14.11;98.84;100956.50;5054695;28;19929;-64
2021/05/21 05:58:41;;;;;;;;;;;14.50;99.90;;;14.20;99.14;100970.16;5055547;28;19935;-62
2021/05/21 06:01:08;;;;;;;;;;;14.60;99.90;;;14.28;99.68;100965.91;5055588;28;19929;-63
2021/05/21 06:03:35;;;;;;;;;;;14.70;99.90;;;14.34;99.70;100970.94;5055374;28;19975;-62
2021/05/21 06:06:03;;;;;;;;;;;14.70;99.90;;;14.42;99.77;100961.22;5054474;28;19940;-63
2021/05/21 06:08:30;;;;;;;;;;;14.90;99.90;;;14.48;98.93;100951.81;5055406;28;20332;-63
2021/05/21 06:10:58;;;;;;;;;;;14.90;99.90;;;14.56;98.89;100960.00;5055569;28;19929;-65
2021/05/21 06:13:26;;;;;;;;;;;15.00;99.90;;;14.62;98.23;100964.19;5055211;28;20441;-63
2021/05/21 06:15:55;;;;;;;;;;;15.00;99.90;;;14.67;98.61;100963.28;5034622;28;19926;-63
2021/05/21 06:18:22;;;;;;;;;;;15.10;99.90;;;14.78;98.97;100973.56;5034931;28;20428;-62
2021/05/21 06:20:50;;;;;;;;;;;15.20;99.90;;;14.88;99.28;100980.66;5035190;28;19979;-63
2021/05/21 06:23:17;;;;;;;;;;;15.30;99.90;;;14.99;99.09;100984.69;5035063;28;19928;-63
2021/05/21 06:26:10;;;;;;;;;;;15.40;99.90;;;15.05;98.58;100977.97;5034845;28;19925;-63
2021/05/21 06:28:38;;;;;;;;;;;15.50;99.90;;;15.08;98.96;100985.53;5034949;28;19925;-64
2021/05/21 06:31:06;;;;;;;;;;;15.50;99.90;;;15.12;98.86;100982.97;5035097;28;20024;-65
2021/05/21 06:33:33;;;;;;;;;;;15.50;99.90;;;15.16;98.46;100987.50;5034967;28;19925;-64
2021/05/21 06:36:00;;;;;;;;;;;15.60;99.90;;;15.22;99.23;100975.34;5034177;28;20420;-64
2021/05/21 06:38:28;;;;;;;;;;;15.70;99.90;;;15.31;99.11;100973.44;5034821;28;20318;-64
2021/05/21 06:40:55;;;;;;;;;;;15.70;99.90;;;15.43;98.82;100985.63;5034851;28;19948;-64
2021/05/21 06:43:23;;;;;;;;;;;15.80;99.90;;;15.51;99.07;100982.94;5034741;28;20379;-64
2021/05/21 06:45:52;;;;;;;;;;;15.90;99.90;;;15.57;99.27;100980.84;5034546;28;20447;-64
2021/05/21 06:48:26;;;;;;;;;;;16.00;99.90;;;15.67;99.36;100992.28;5034085;28;19956;-65
2021/05/21 06:50:53;;;;;;;;;;;16.10;99.90;;;15.76;98.35;100984.91;5034736;28;19925;-65
2021/05/21 06:53:22;;;;;;;;;;;16.20;99.90;;;15.91;97.99;100983.59;5034603;28;19925;-65
2021/05/21 06:55:49;;;;;;;;;;;16.30;99.90;;;16.02;97.23;100997.75;5034333;28;19937;-65
2021/05/21 06:58:18;;;;;;;;;;;16.40;99.90;;;16.07;97.89;100978.47;5033898;28;19925;-64
2021/05/21 07:00:46;;;;;;;;;;;16.50;99.90;;;16.26;97.47;100981.66;5034665;28;19925;-64
2021/05/21 07:03:14;;;;;;;;;;;16.90;99.90;;;16.69;95.51;100967.91;5034352;28;19929;-65
2021/05/21 07:05:43;;;;;;;;;;;17.30;99.90;;;17.23;92.14;100964.31;5034150;28;19925;-65
2021/05/21 07:08:10;;;;;;;;;;;17.60;99.90;;;17.60;87.88;100975.53;5041489;28;20349;-64
2021/05/21 07:10:38;;;;;;;;;;;18.00;99.90;;;18.03;85.47;100974.00;5054300;28;20382;-64
2021/05/21 07:13:09;;;;;;;;;;;18.30;99.90;;;18.21;83.79;100968.41;5054123;28;19929;-64
2021/05/21 07:15:36;;;;;;;;;;;18.50;99.90;;;18.23;81.88;100972.41;5054007;28;19925;-65
2021/05/21 07:18:04;;;;;;;;;;;18.60;99.90;;;18.37;81.56;100967.41;5053389;28;19928;-62
2021/05/21 07:20:32;;;;;;;;;;;18.70;99.90;;;18.40;80.14;100982.34;5053840;28;19936;-62
2021/05/21 07:23:00;;;;;;;;;;;18.70;99.90;;;18.51;79.20;100975.38;5053976;28;19929;-63
2021/05/21 07:25:28;;;;;;;;;;;18.80;99.90;;;18.44;79.14;100970.41;5053978;28;19924;-63
2021/05/21 07:27:55;;;;;;;;;;;18.90;99.90;;;18.33;79.82;100977.44;5053130;28;19933;-63
2021/05/21 07:30:23;;;;;;;;;;;18.90;99.90;;;17.94;79.59;100964.28;5053931;28;19994;-63
2021/05/21 07:32:50;;;;;;;;;;;18.60;99.90;;;17.91;82.34;100973.97;5053773;28;19925;-62
2021/05/21 07:35:18;;;;;;;;;;;18.60;99.90;;;18.10;81.44;100972.66;5053604;28;20298;-65
2021/05/21 07:37:46;;;;;;;;;;;18.80;99.90;;;18.01;79.65;100978.22;5053101;28;19924;-63
2021/05/21 07:40:16;;;;;;;;;;;18.70;99.90;;;18.35;80.89;100974.38;5053741;28;19951;-65
2021/05/21 07:42:43;;;;;;;;;;;18.90;99.90;;;18.70;77.82;100970.13;5053561;28;19925;-63
2021/05/21 07:45:12;;;;;;;;;;;19.20;99.90;;;18.62;76.59;100983.94;5053368;28;19932;-63
2021/05/21 07:47:39;;;;;;;;;;;19.40;99.90;;;19.14;76.49;100979.41;5052724;28;19932;-63
2021/05/21 07:50:09;;;;;;;;;;;19.50;99.90;;;19.75;71.84;100971.91;5053492;28;19925;-64
2021/05/21 07:52:36;;;;;;;;;;;20.10;99.90;;;20.17;70.33;100966.84;5053485;28;20362;-64
2021/05/21 07:55:05;;;;;;;;;;;20.30;99.90;;;20.24;69.50;100972.53;5053099;28;19929;-64
2021/05/21 07:57:35;;;;;;;;;;;20.60;99.90;;;20.39;69.51;100963.56;5052897;28;19979;-65
2021/05/21 08:00:02;;;;;;;;;;;20.70;99.90;;;20.59;67.15;100965.25;5052502;28;19929;-64
2021/05/21 08:02:30;;;;;;;;;;;20.80;99.90;;;20.89;65.75;100959.31;5052740;28;19932;-64
2021/05/21 08:04:57;;;;;;;;;;;21.00;99.90;;;21.17;64.28;100965.53;5052984;28;19933;-64
2021/05/21 08:07:24;;;;;;;;;;;21.30;99.90;;;21.28;64.67;100969.31;5052504;28;19925;-65
2021/05/21 08:09:54;;;;;;;;;;;21.40;99.90;;;21.37;64.36;100980.91;5053089;28;19929;-64
2021/05/21 08:12:22;;;;;;;;;;;21.60;99.90;;;21.47;63.66;100985.06;5053193;28;20385;-64
2021/05/21 08:14:50;;;;;;;;;;;21.60;99.90;;;21.28;64.22;100987.78;5052603;28;19955;-64
2021/05/21 08:17:17;;;;;;;;;;;21.60;99.90;;;21.50;63.91;100990.66;5052414;28;19931;-64
2021/05/21 08:19:45;;;;;;;;;;;21.70;99.90;;;21.56;62.08;100986.47;5052642;28;19925;-64
2021/05/21 08:22:13;;;;;;;;;;;21.80;99.90;;;21.25;63.84;100986.53;5053083;28;20336;-64
2021/05/21 08:24:40;;;;;;;;;;;21.70;99.90;;;21.62;63.03;100987.78;5052609;28;19935;-64
2021/05/21 08:27:08;;;;;;;;;;;21.70;99.90;;;21.73;61.47;100985.28;5052156;28;19925;-64
2021/05/21 08:29:35;;;;;;;;;;;;;;;22.01;61.15;100974.88;5052548;28;19956;-64
2021/05/21 08:32:04;;;;;;;;;;;22.10;99.90;;;22.43;61.46;100974.91;5052774;28;19928;-64
2021/05/21 08:34:31;;;;;;;;;;;22.50;99.90;;;22.48;60.40;100963.56;5052489;28;20432;-64
2021/05/21 08:36:59;;;;;;;;;;;22.70;99.90;;;22.76;58.40;100972.38;5051892;28;20297;-64
2021/05/21 08:39:26;;;;;;;;;;;22.90;99.90;;;22.68;58.68;100975.34;5052477;28;19995;-64
2021/05/21 08:41:55;;;;;;;;;;;22.90;99.90;;;22.46;58.60;100973.38;5052534;28;19928;-64
2021/05/21 08:44:24;;;;;;;;;;;22.90;99.90;;;22.30;59.29;100977.03;5052412;28;19929;-65
2021/05/21 08:46:52;;;;;;;;;;;22.70;99.90;;;22.31;59.33;100961.31;5051768;28;19924;-64
2021/05/21 08:49:23;;;;;;;;;;;22.60;99.90;;;22.56;59.63;100958.97;5052375;28;19925;-64
2021/05/21 08:51:51;;;;;;;;;;;22.70;99.90;;;22.74;58.98;100949.88;5052531;28;20453;-64
2021/05/21 08:54:19;;;;;;;;;;;22.90;99.90;;;22.83;58.26;100941.34;5052096;28;19925;-64
2021/05/21 08:56:46;;;;;;;;;;;23.10;99.90;;;22.83;57.44;100935.84;5051210;28;19925;-64
2021/05/21 08:59:13;;;;;;;;;;;23.10;99.90;;;22.92;57.61;100927.34;5052299;28;19925;-64
2021/05/21 09:01:54;;;;;;;;;;;23.20;99.90;;;22.90;57.69;100940.69;5052368;28;20370;-64
2021/05/21 09:04:22;;;;;;;;;;;23.20;99.90;;;23.03;57.23;100933.81;5052125;28;20455;-64
2021/05/21 09:06:49;;;;;;;;;;;23.30;99.90;;;23.28;57.00;100932.22;5051447;28;19932;-64
2021/05/21 09:09:17;;;;;;;;;;;23.50;99.90;;;23.31;55.99;100937.78;5051876;28;19936;-64
2021/05/21 09:11:45;;;;;;;;;;;23.50;99.90;;;23.25;54.68;100939.28;5052264;28;19931;-64
2021/05/21 09:14:14;;;;;;;;;;;;;;;23.39;55.05;100941.47;5052435;28;19994;-64
2021/05/21 09:16:42;;;;;;;;;;;23.60;99.90;;;23.44;55.33;100959.66;5051503;28;19925;-64
2021/05/21 09:19:11;;;;;;;;;;;;;;;23.42;55.72;100957.28;5051730;28;19979;-64
2021/05/21 09:22:00;;;;;;;;;;;23.70;99.90;;;23.15;56.64;100950.13;5052192;28;19972;-64
2021/05/21 09:24:31;;;;;;;;;;;23.70;99.90;;;22.97;58.00;100941.59;5051984;28;20342;-64
2021/05/21 09:26:59;;;;;;;;;;;23.50;99.90;;;22.75;58.35;100947.91;5051810;28;19951;-64
2021/05/21 09:29:47;;;;;;;;;;;23.30;99.90;;;22.62;59.52;100938.22;5051740;28;19925;-64
2021/05/21 09:32:28;;;;;;;;;;;23.20;99.90;;;22.63;58.25;100932.34;5049106;28;19932;-64
2021/05/21 09:35:07;;;;;;;;;;;23.10;99.90;;;22.61;60.42;100922.84;5051680;28;19936;-64
2021/05/21 09:37:37;;;;;;;;;;;23.10;99.90;;;22.70;59.23;100931.69;5051363;28;20432;-64
2021/05/21 09:40:07;;;;;;;;;;;23.20;99.90;;;22.60;58.71;100926.78;5051651;28;19979;-64
2021/05/21 09:42:52;;;;;;;;;;;23.10;99.90;;;22.79;57.96;100932.25;5051976;28;19933;-64
2021/05/21 09:45:26;;;;;;;;;;;23.20;99.90;;;22.94;57.86;100936.03;5051787;28;19936;-65
2021/05/21 09:47:55;;;;;;;;;;;23.40;99.90;;;22.79;58.62;100937.75;5049245;28;19931;-64
2021/05/21 09:50:32;;;;;;;;;;;23.30;99.90;;;22.61;58.48;100936.63;5031880;28;19987;-65
2021/05/21 09:53:05;;;;;;;;;;;23.20;99.90;;;22.38;59.10;100942.13;5031993;28;20011;-63
2021/05/21 09:55:38;;;;;;;;;;;23.00;99.90;;;22.27;58.96;100932.88;5031875;28;19932;-63
2021/05/21 09:58:06;;;;;;;;;;;22.80;99.90;;;22.27;60.36;100938.38;5031519;28;19925;-63
2021/05/21 10:00:33;;;;;;;;;;;22.80;99.90;;;22.24;59.83;100947.38;5031931;28;20342;-63
2021/05/21 10:03:01;;;;;;;;;;;22.80;99.90;;;22.08;59.72;100943.91;5031815;28;19979;-65
2021/05/21 10:05:29;;;;;;;;;;;22.60;99.90;;;22.18;59.32;100944.13;5031677;28;19925;-65
2021/05/21 10:07:56;;;;;;;;;;;22.70;99.90;;;22.19;59.62;100951.22;5031253;28;19933;-64
2021/05/21 10:10:25;;;;;;;;;;;22.70;99.90;;;22.29;58.96;100950.63;5031667;28;19980;-64
2021/05/21 10:12:54;;;;;;;;;;;22.80;99.90;;;22.36;58.42;100944.47;5031790;28;19925;-65
2021/05/21 10:15:21;;;;;;;;;;;22.90;99.90;;;22.39;57.92;100949.25;5031326;28;19933;-64
2021/05/21 10:17:49;;;;;;;;;;;22.90;99.90;;;22.33;58.51;100943.25;5031032;28;19936;-64
2021/05/21 10:20:18;;;;;;;;;;;22.90;99.90;;;22.54;59.60;100948.34;5031493;28;19929;-64
2021/05/21 10:22:48;;;;;;;;;;;23.00;99.90;;;22.75;58.26;100940.47;5032510;28;19979;-64
2021/05/21 10:25:20;;;;;;;;;;;23.10;99.90;;;22.80;58.69;100931.06;5034862;28;19936;-64
2021/05/21 10:27:51;;;;;;;;;;;23.20;99.90;;;22.84;57.64;100935.47;5034596;28;20036;-64
2021/05/21 10:30:22;;;;;;;;;;;23.30;99.90;;;22.68;57.84;100945.84;5035128;28;19935;-64
2021/05/21 10:32:49;;;;;;;;;;;23.20;99.90;;;22.56;57.65;100953.47;5035177;28;19932;-65
2021/05/21 10:35:19;;;;;;;;;;;23.10;99.90;;;22.40;57.88;100948.09;5034734;28;19936;-65
2021/05/21 10:37:47;;;;;;;;;;;22.90;99.90;;;22.34;57.11;100944.03;5034471;28;20018;-64
2021/05/21 10:40:22;;;;;;;;;;;22.90;99.90;;;22.36;58.09;100961.00;5034957;28;19929;-64
2021/05/21 10:42:52;;;;;;;;;;;22.80;99.90;;;22.40;58.69;100956.34;5034930;28;20298;-65
2021/05/21 10:45:21;;;;;;;;;;;22.80;99.90;;;22.38;58.43;100958.66;5034753;28;20393;-64
2021/05/21 10:47:58;;;;;;;;;;;22.90;99.90;;;22.36;57.57;100958.25;5034169;28;20378;-64
2021/05/21 10:50:33;;;;;;;;;;;22.90;99.90;;;22.28;57.50;100945.50;5034927;28;19931;-65
2021/05/21 10:53:02;;;;;;;;;;;22.80;99.90;;;22.17;56.94;100947.25;5034606;28;20401;-64
2021/05/21 10:55:43;;;;;;;;;;;22.70;99.90;;;22.11;57.47;100943.19;5034346;28;20397;-64
2021/05/21 10:58:22;;;;;;;;;;;22.60;99.90;;;22.02;58.37;100945.38;5034116;28;19925;-64
2021/05/21 11:01:29;;;;;;;;;;;22.50;99.90;;;22.15;58.37;100944.88;5034560;28;19925;-64
2021/05/21 11:04:09;;;;;;;;;;;22.60;99.90;;;22.16;58.37;100948.41;5034586;28;19952;-65
2021/05/21 11:06:50;;;;;;;;;;;22.60;99.90;;;22.12;59.68;100948.34;5033693;28;19926;-64
2021/05/21 11:09:20;;;;;;;;;;;22.60;99.90;;;22.16;59.22;100946.44;5034464;28;20302;-65
2021/05/21 11:11:50;;;;;;;;;;;22.60;99.90;;;22.15;58.50;100941.31;5034271;28;19928;-64
2021/05/21 11:14:28;;;;;;;;;;;22.60;99.90;;;22.22;59.60;100946.97;5034276;28;19925;-64
2021/05/21 11:16:57;;;;;;;;;;;22.60;99.90;;;22.36;58.08;100935.41;5033594;28;20003;-64